Birch Harbor, Maine
Current Conditions -  °F | °C
As of 9:55 PM on Friday 19 Dec 2014 (Local Time) from KBHB Reporting Station
Clear Clear  
Wind Chill: 17°   Ceiling: Unl
Heat Index: 27°   Visibility: 10mi
Dew Point: 23°   Wind: 10mph
Humidity: 86%   Direction: 360°N
Pressure: 30.09"   Gusts: NA
Location:  44.39°N, 68.04°W
Report Text: KBHB 200255Z AUTO 36009KT 10SM CLR M03/M05 A3009 RMK AO1 52024
Loading
Personal Weather Stations






























Interactive Weather Map New forecast layout! Learn more

10-Day Weather Forecast

Advertisements
Track Severe Weather on mobile